createdAt,value
2018-07-24T00:00:53.599Z,6.23
2018-07-24T00:03:22.834Z,6.70
2018-07-24T00:05:52.239Z,6.93
2018-07-24T00:08:21.403Z,7.73
2018-07-24T00:10:50.594Z,6.30
2018-07-24T00:13:19.832Z,8.90
2018-07-24T00:15:49.240Z,8.87
2018-07-24T00:18:18.396Z,7.13
2018-07-24T00:20:47.603Z,10.17
2018-07-24T00:23:16.788Z,7.23
2018-07-24T00:25:46.020Z,7.27
2018-07-24T00:28:15.280Z,6.40
2018-07-24T00:30:44.535Z,7.83
2018-07-24T00:33:13.808Z,7.07
2018-07-24T00:35:43.040Z,7.33
2018-07-24T00:38:12.476Z,6.83
2018-07-24T00:40:41.835Z,8.70
2018-07-24T00:43:11.119Z,9.03
2018-07-24T00:45:40.248Z,8.03
2018-07-24T00:48:09.423Z,8.43
2018-07-24T00:50:38.599Z,9.13
2018-07-24T00:53:08.007Z,7.73
2018-07-24T00:55:37.170Z,7.53
2018-07-24T00:58:06.559Z,7.30
2018-07-24T01:00:35.712Z,7.50
2018-07-24T01:03:04.908Z,9.17
2018-07-24T01:05:34.176Z,7.40
2018-07-24T01:08:03.391Z,7.63
2018-07-24T01:10:32.696Z,7.70
2018-07-24T01:13:01.908Z,7.50
2018-07-24T01:15:32.563Z,7.70
2018-07-24T01:18:01.840Z,8.13
2018-07-24T01:20:32.053Z,7.40
2018-07-24T01:23:02.355Z,7.70
2018-07-24T01:25:31.508Z,7.40
2018-07-24T01:28:00.740Z,7.13
2018-07-24T01:30:29.916Z,9.57
2018-07-24T01:32:59.080Z,7.63
2018-07-24T01:35:28.245Z,7.07
2018-07-24T01:37:57.452Z,7.07
2018-07-24T01:40:26.629Z,7.53
2018-07-24T01:42:55.772Z,7.13
2018-07-24T01:45:24.898Z,7.03
2018-07-24T01:47:54.694Z,9.43
2018-07-24T01:50:23.903Z,8.80
2018-07-24T01:52:53.060Z,8.20
2018-07-24T01:55:22.204Z,9.43
2018-07-24T01:57:51.406Z,11.43
2018-07-24T02:00:20.545Z,8.03
2018-07-24T02:02:49.690Z,8.47
2018-07-24T02:05:18.881Z,8.03
2018-07-24T02:07:48.117Z,8.37
2018-07-24T02:10:17.330Z,8.37
2018-07-24T02:12:46.517Z,8.10
2018-07-24T02:15:15.725Z,8.20
2018-07-24T02:17:45.920Z,9.03
2018-07-24T02:20:15.098Z,11.17
2018-07-24T02:22:44.301Z,9.47
2018-07-24T02:25:13.533Z,9.83
2018-07-24T02:27:42.669Z,8.03
2018-07-24T02:30:11.863Z,9.23
2018-07-24T02:32:41.060Z,8.23
2018-07-24T02:35:10.354Z,9.50
2018-07-24T02:37:39.588Z,8.03
2018-07-24T02:40:08.798Z,9.80
2018-07-24T02:42:37.980Z,8.80
2018-07-24T02:45:08.301Z,8.67
2018-07-24T02:47:37.528Z,8.83
2018-07-24T02:50:06.806Z,9.20
2018-07-24T02:52:36.020Z,8.20
2018-07-24T02:55:05.308Z,10.50
2018-07-24T02:57:34.496Z,9.03
2018-07-24T03:00:03.689Z,10.27
2018-07-24T03:02:32.879Z,11.03
2018-07-24T03:05:02.078Z,8.90
2018-07-24T03:07:31.269Z,9.03
2018-07-24T03:10:00.457Z,9.73
2018-07-24T03:12:29.624Z,11.07
2018-07-24T03:14:58.860Z,11.53
2018-07-24T03:17:28.099Z,10.73
2018-07-24T03:19:57.356Z,9.87
2018-07-24T03:22:26.597Z,11.07
2018-07-24T03:24:55.853Z,10.43
2018-07-24T03:27:25.087Z,11.17
2018-07-24T03:29:54.224Z,10.13
2018-07-24T03:32:23.521Z,10.37
2018-07-24T03:34:52.806Z,11.50
2018-07-24T03:37:21.984Z,11.10
2018-07-24T03:39:51.116Z,10.37
2018-07-24T03:42:20.273Z,11.07
2018-07-24T03:44:49.437Z,9.97
2018-07-24T03:47:18.625Z,8.90
2018-07-24T03:49:47.851Z,10.73
2018-07-24T03:52:17.088Z,12.53
2018-07-24T03:54:46.212Z,10.10
2018-07-24T03:57:15.433Z,10.70
2018-07-24T03:59:44.657Z,9.90
2018-07-24T04:02:13.982Z,10.67
2018-07-24T04:04:43.188Z,11.40
2018-07-24T04:07:12.473Z,10.57
2018-07-24T04:09:41.640Z,11.00
2018-07-24T04:12:10.821Z,10.60
2018-07-24T04:14:40.058Z,10.27
2018-07-24T04:17:09.296Z,13.10
2018-07-24T04:19:38.540Z,10.60
2018-07-24T04:22:07.801Z,12.07
2018-07-24T04:24:36.980Z,10.60
2018-07-24T04:27:06.520Z,10.67
2018-07-24T04:29:35.944Z,11.97
2018-07-24T04:32:05.129Z,10.47
2018-07-24T04:34:34.256Z,11.77
2018-07-24T04:37:03.464Z,11.83
2018-07-24T04:39:32.777Z,12.70
2018-07-24T04:42:01.989Z,10.77
2018-07-24T04:44:31.188Z,11.50
2018-07-24T04:47:00.459Z,10.93
2018-07-24T04:49:29.680Z,9.70
2018-07-24T04:51:58.865Z,10.13
2018-07-24T04:54:27.976Z,11.00
2018-07-24T04:56:57.316Z,10.47
2018-07-24T04:59:26.433Z,10.80
2018-07-24T05:01:55.608Z,11.70
2018-07-24T05:04:24.775Z,10.70
2018-07-24T05:06:53.964Z,11.57
2018-07-24T05:09:23.092Z,10.53
2018-07-24T05:11:52.268Z,10.80
2018-07-24T05:14:24.666Z,14.43
2018-07-24T05:16:56.585Z,12.90
2018-07-24T05:19:25.890Z,11.70
2018-07-24T05:21:55.120Z,12.20
2018-07-24T05:24:24.281Z,11.00
2018-07-24T05:26:53.520Z,10.77
2018-07-24T05:29:22.677Z,11.83
2018-07-24T05:31:51.912Z,10.80
2018-07-24T05:34:21.088Z,10.77
2018-07-24T05:36:50.324Z,10.90
2018-07-24T05:39:19.580Z,11.67
2018-07-24T05:41:48.762Z,11.07
2018-07-24T05:44:17.973Z,11.30
2018-07-24T05:46:47.215Z,10.90
2018-07-24T05:49:16.458Z,10.33
2018-07-24T05:51:45.713Z,12.53
2018-07-24T05:54:14.956Z,12.43
2018-07-24T05:56:44.151Z,11.43
2018-07-24T05:59:13.389Z,10.87
2018-07-24T06:01:42.689Z,9.73
2018-07-24T06:04:12.006Z,11.20
2018-07-24T06:06:41.533Z,10.33
2018-07-24T06:09:11.024Z,10.23
2018-07-24T06:11:40.250Z,10.40
2018-07-24T06:14:09.713Z,10.93
2018-07-24T06:16:38.972Z,10.70
2018-07-24T06:19:08.169Z,10.00
2018-07-24T06:21:37.354Z,10.32
2018-07-24T06:24:06.578Z,10.05
2018-07-24T06:26:35.696Z,10.03
2018-07-24T06:29:04.925Z,8.60
2018-07-24T06:31:34.068Z,8.45
2018-07-24T06:34:03.243Z,14.33
2018-07-24T06:36:32.463Z,10.10
2018-07-24T06:39:01.828Z,8.75
2018-07-24T06:41:31.174Z,10.05
2018-07-24T06:44:00.498Z,12.55
2018-07-24T06:46:29.639Z,10.43
2018-07-24T06:48:58.838Z,8.70
2018-07-24T06:51:28.031Z,9.48
2018-07-24T06:53:57.238Z,9.90
2018-07-24T06:56:26.383Z,8.18
2018-07-24T06:58:55.768Z,8.33
2018-07-24T07:01:24.919Z,9.03
2018-07-24T07:03:54.159Z,12.50
2018-07-24T07:06:23.558Z,11.28
2018-07-24T07:08:56.748Z,12.58
2018-07-24T07:11:26.229Z,10.98
2018-07-24T07:13:55.471Z,13.50
2018-07-24T07:16:24.673Z,9.60
2018-07-24T07:18:53.876Z,12.15
2018-07-24T07:21:23.109Z,8.20
2018-07-24T07:23:52.327Z,9.33
2018-07-24T07:26:21.538Z,7.05
2018-07-24T07:28:50.962Z,9.23
2018-07-24T07:31:20.101Z,8.95
2018-07-24T07:33:49.309Z,12.18
2018-07-24T07:36:18.553Z,8.95
2018-07-24T07:38:47.756Z,6.83
2018-07-24T07:41:16.898Z,8.73
2018-07-24T07:43:46.076Z,7.10
2018-07-24T07:46:15.276Z,9.78
2018-07-24T07:48:44.586Z,6.50
2018-07-24T07:51:13.745Z,6.50
2018-07-24T07:53:42.989Z,6.60
2018-07-24T07:56:12.177Z,7.17
2018-07-24T07:58:41.485Z,8.50
2018-07-24T08:01:10.714Z,6.75
2018-07-24T08:03:39.905Z,5.03
2018-07-24T08:06:09.110Z,5.17
2018-07-24T08:08:38.260Z,4.78
2018-07-24T08:11:07.725Z,4.92
2018-07-24T08:13:37.055Z,6.62
2018-07-24T08:16:06.484Z,4.87
2018-07-24T08:18:35.686Z,5.83
2018-07-24T08:21:05.006Z,5.35
2018-07-24T08:23:34.181Z,5.12
2018-07-24T08:26:03.511Z,4.37
2018-07-24T08:28:32.823Z,8.10
2018-07-24T08:31:02.136Z,4.58
2018-07-24T08:33:31.556Z,4.42
2018-07-24T08:36:00.845Z,5.25
2018-07-24T08:38:30.234Z,4.35
2018-07-24T08:40:59.718Z,4.90
2018-07-24T08:43:29.140Z,7.65
2018-07-24T08:45:58.577Z,6.50
2018-07-24T08:48:28.044Z,4.45
2018-07-24T08:50:57.446Z,6.28
2018-07-24T08:53:27.122Z,4.53
2018-07-24T08:55:56.122Z,4.92
2018-07-24T08:58:25.536Z,5.40
2018-07-24T09:00:54.762Z,4.95
2018-07-24T09:03:23.995Z,4.25
2018-07-24T09:05:53.233Z,6.08
2018-07-24T09:08:22.455Z,5.37
2018-07-24T09:10:51.686Z,4.35
2018-07-24T09:13:20.966Z,4.83
2018-07-24T09:15:50.448Z,4.50
2018-07-24T09:18:19.732Z,5.12
2018-07-24T09:20:49.148Z,7.17
2018-07-24T09:23:18.473Z,4.42
2018-07-24T09:25:47.723Z,7.22
2018-07-24T09:28:16.984Z,5.47
2018-07-24T09:30:46.321Z,4.50
2018-07-24T09:33:15.846Z,4.40
2018-07-24T09:35:45.250Z,3.92
2018-07-24T09:38:14.425Z,4.10
2018-07-24T09:40:43.831Z,4.40
2018-07-24T09:43:12.992Z,4.60
2018-07-24T09:45:42.345Z,4.20
2018-07-24T09:48:11.734Z,4.62
2018-07-24T09:50:41.214Z,4.25
2018-07-24T09:53:10.410Z,6.85
2018-07-24T09:55:39.592Z,4.10
2018-07-24T09:58:08.891Z,4.20
2018-07-24T10:00:43.692Z,6.20
2018-07-24T10:03:14.119Z,4.12
2018-07-24T10:05:43.394Z,4.65
2018-07-24T10:08:12.708Z,4.20
2018-07-24T10:10:41.995Z,4.72
2018-07-24T10:13:11.296Z,4.45
2018-07-24T10:15:40.548Z,4.30
2018-07-24T10:18:09.693Z,4.67
2018-07-24T10:20:38.944Z,5.72
2018-07-24T10:23:08.397Z,3.67
2018-07-24T10:25:37.863Z,4.17
2018-07-24T10:28:07.170Z,5.30
2018-07-24T10:30:36.498Z,4.03
2018-07-24T10:33:05.897Z,4.25
2018-07-24T10:35:36.059Z,4.35
2018-07-24T10:38:05.316Z,4.83
2018-07-24T10:40:34.560Z,4.90
2018-07-24T10:43:03.801Z,3.87
2018-07-24T10:45:33.038Z,6.85
2018-07-24T10:48:02.308Z,5.58
2018-07-24T10:50:31.686Z,5.22
2018-07-24T10:53:00.861Z,3.33
2018-07-24T10:55:30.030Z,3.52
2018-07-24T10:57:59.244Z,5.03
2018-07-24T11:00:28.547Z,4.75
2018-07-24T11:02:57.773Z,4.33
2018-07-24T11:05:27.098Z,3.20
2018-07-24T11:07:56.384Z,4.30
2018-07-24T11:10:25.626Z,4.80
2018-07-24T11:12:54.837Z,4.25
2018-07-24T11:15:24.133Z,3.42
2018-07-24T11:17:53.392Z,3.95
2018-07-24T11:20:22.643Z,5.85
2018-07-24T11:22:52.023Z,4.50
2018-07-24T11:25:21.292Z,14.75
2018-07-24T11:27:50.582Z,3.50
2018-07-24T11:30:19.943Z,4.40
2018-07-24T11:32:49.231Z,4.53
2018-07-24T11:35:18.437Z,3.62
2018-07-24T11:37:47.801Z,5.03
2018-07-24T11:40:16.962Z,3.25
2018-07-24T11:42:46.391Z,4.60
2018-07-24T11:45:15.571Z,3.30
2018-07-24T11:47:44.743Z,3.05
2018-07-24T11:50:14.056Z,4.70
2018-07-24T11:52:43.473Z,3.02
2018-07-24T11:55:12.610Z,3.22
2018-07-24T11:57:42.040Z,3.40
2018-07-24T12:00:11.194Z,3.05
2018-07-24T12:02:40.497Z,3.42
2018-07-24T12:05:09.881Z,3.08
2018-07-24T12:07:39.168Z,3.52
2018-07-24T12:10:08.574Z,3.52
2018-07-24T12:12:37.980Z,3.47
2018-07-24T12:15:07.728Z,4.87
2018-07-24T12:17:37.007Z,3.55
2018-07-24T12:20:06.330Z,5.28
2018-07-24T12:22:35.910Z,4.70
2018-07-24T12:25:05.403Z,5.45
2018-07-24T12:27:34.797Z,5.28
2018-07-24T12:30:05.437Z,6.67
2018-07-24T12:32:34.951Z,3.42
2018-07-24T12:35:04.306Z,4.35
2018-07-24T12:37:33.747Z,3.55
2018-07-24T12:40:03.461Z,4.58
2018-07-24T12:42:32.853Z,3.15
2018-07-24T12:45:02.142Z,3.72
2018-07-24T12:47:31.449Z,2.83
2018-07-24T12:50:01.027Z,3.00
2018-07-24T12:52:31.508Z,3.50
2018-07-24T12:55:00.895Z,3.45
2018-07-24T12:57:30.193Z,2.87
2018-07-24T12:59:59.482Z,3.52
2018-07-24T13:02:28.808Z,4.75
2018-07-24T13:04:58.698Z,4.22
2018-07-24T13:07:27.993Z,2.42
2018-07-24T13:09:57.435Z,5.17
2018-07-24T13:12:26.805Z,3.40
2018-07-24T13:14:56.096Z,3.77
2018-07-24T13:17:25.826Z,5.78
2018-07-24T13:19:55.064Z,4.55
2018-07-24T13:22:24.316Z,5.25
2018-07-24T13:24:53.544Z,4.80
2018-07-24T13:27:22.939Z,4.92
2018-07-24T13:29:52.124Z,3.45
2018-07-24T13:32:21.510Z,3.30
2018-07-24T13:34:50.811Z,4.20
2018-07-24T13:37:20.477Z,2.72
2018-07-24T13:39:49.723Z,3.08
2018-07-24T13:42:18.959Z,3.85
2018-07-24T13:44:48.125Z,2.80
2018-07-24T13:47:17.338Z,3.30
2018-07-24T13:49:47.535Z,3.45
2018-07-24T13:52:16.740Z,4.22
2018-07-24T13:54:46.009Z,2.85
2018-07-24T13:57:15.272Z,7.72
2018-07-24T13:59:44.529Z,3.12
2018-07-24T14:02:13.931Z,4.12
2018-07-24T14:04:43.336Z,4.78
2018-07-24T14:07:12.555Z,5.30
2018-07-24T14:09:41.816Z,5.10
2018-07-24T14:12:11.104Z,3.87
2018-07-24T14:14:41.428Z,3.40
2018-07-24T14:17:10.609Z,4.25
2018-07-24T14:19:39.829Z,3.75
2018-07-24T14:22:08.994Z,4.15
2018-07-24T14:24:38.330Z,2.45
2018-07-24T14:27:07.582Z,4.22
2018-07-24T14:29:36.789Z,3.10
2018-07-24T14:32:05.913Z,4.50
2018-07-24T14:34:35.105Z,8.28
2018-07-24T14:37:04.286Z,4.87
2018-07-24T14:39:33.522Z,8.80
2018-07-24T14:42:02.767Z,4.25
2018-07-24T14:44:32.124Z,6.53
2018-07-24T14:47:01.253Z,6.17
2018-07-24T14:49:30.424Z,4.50
2018-07-24T14:51:59.668Z,2.27
2018-07-24T14:54:28.985Z,2.62
2018-07-24T14:56:58.297Z,2.35
2018-07-24T14:59:27.922Z,2.50
2018-07-24T15:01:57.084Z,3.35
2018-07-24T15:04:26.293Z,3.58
2018-07-24T15:06:55.469Z,2.40
2018-07-24T15:09:26.591Z,4.08
2018-07-24T15:11:55.807Z,2.92
2018-07-24T15:14:25.054Z,2.27
2018-07-24T15:16:54.434Z,3.65
2018-07-24T15:19:23.644Z,2.98
2018-07-24T15:21:52.769Z,6.03
2018-07-24T15:24:22.206Z,3.27
2018-07-24T15:26:51.390Z,2.02
2018-07-24T15:29:20.730Z,3.10
2018-07-24T15:31:50.065Z,3.95
2018-07-24T15:34:19.351Z,4.05
2018-07-24T15:36:48.472Z,3.00
2018-07-24T15:39:17.821Z,4.20
2018-07-24T15:41:47.011Z,2.10
2018-07-24T15:44:16.212Z,3.00
2018-07-24T15:46:45.461Z,2.10
2018-07-24T15:49:14.677Z,2.65
2018-07-24T15:51:44.007Z,4.30
2018-07-24T15:54:13.244Z,3.50
2018-07-24T15:56:42.857Z,2.20
2018-07-24T15:59:12.139Z,2.67
2018-07-24T16:01:41.313Z,2.65
2018-07-24T16:04:10.517Z,2.15
2018-07-24T16:06:39.711Z,2.20
2018-07-24T16:09:11.787Z,2.65
2018-07-24T16:11:41.161Z,3.15
2018-07-24T16:14:10.708Z,3.15
2018-07-24T16:16:40.249Z,2.67
2018-07-24T16:19:09.577Z,2.40
2018-07-24T16:21:38.887Z,3.55
2018-07-24T16:24:08.188Z,2.50
2018-07-24T16:26:37.492Z,2.87
2018-07-24T16:29:06.936Z,2.27
2018-07-24T16:31:36.049Z,3.27
2018-07-24T16:34:05.303Z,4.58
2018-07-24T16:36:34.659Z,3.55
2018-07-24T16:39:04.328Z,3.40
2018-07-24T16:41:33.483Z,2.90
2018-07-24T16:44:02.672Z,2.90
2018-07-24T16:46:31.989Z,2.98
2018-07-24T16:49:01.341Z,2.60
2018-07-24T16:51:30.572Z,3.67
2018-07-24T16:53:59.935Z,1.70
2018-07-24T16:56:29.185Z,3.92
2018-07-24T16:58:58.347Z,3.30
2018-07-24T17:01:27.622Z,2.27
2018-07-24T17:03:56.905Z,2.52
2018-07-24T17:06:26.060Z,2.08
2018-07-24T17:08:55.186Z,3.37
2018-07-24T17:11:24.473Z,2.72
2018-07-24T17:13:53.806Z,3.75
2018-07-24T17:16:23.069Z,3.67
2018-07-24T17:18:52.242Z,2.67
2018-07-24T17:21:21.452Z,2.87
2018-07-24T17:23:50.613Z,3.98
2018-07-24T17:26:20.065Z,2.55
2018-07-24T17:28:49.213Z,1.90
2018-07-24T17:31:18.630Z,2.58
2018-07-24T17:33:47.790Z,12.88
2018-07-24T17:36:17.025Z,7.60
2018-07-24T17:38:46.289Z,7.28
2018-07-24T17:41:15.519Z,5.10
2018-07-24T17:43:44.709Z,3.45
2018-07-24T17:46:13.945Z,1.95
2018-07-24T17:48:43.152Z,2.85
2018-07-24T17:51:12.338Z,2.85
2018-07-24T17:53:41.596Z,2.67
2018-07-24T17:56:10.860Z,3.25
2018-07-24T17:58:39.988Z,5.97
2018-07-24T18:01:09.189Z,3.80
2018-07-24T18:03:38.386Z,2.20
2018-07-24T18:06:07.936Z,1.90
2018-07-24T18:08:37.666Z,2.15
2018-07-24T18:11:07.675Z,2.77
2018-07-24T18:13:37.017Z,4.40
2018-07-24T18:16:06.329Z,2.10
2018-07-24T18:18:35.684Z,6.35
2018-07-24T18:21:07.661Z,5.40
2018-07-24T18:23:36.986Z,10.48
2018-07-24T18:26:06.986Z,5.22
2018-07-24T18:28:36.239Z,6.30
2018-07-24T18:31:05.401Z,5.08
2018-07-24T18:33:34.561Z,6.25
2018-07-24T18:36:03.758Z,13.40
2018-07-24T18:38:32.950Z,10.28
2018-07-24T18:41:02.160Z,6.67
2018-07-24T18:43:31.360Z,9.65
2018-07-24T18:46:00.597Z,5.53
2018-07-24T18:48:29.842Z,10.25
2018-07-24T18:50:59.085Z,3.58
2018-07-24T18:53:28.260Z,4.83
2018-07-24T18:55:57.480Z,4.85
2018-07-24T18:58:26.906Z,3.15
2018-07-24T19:00:58.519Z,4.42
2018-07-24T19:03:27.770Z,3.25
2018-07-24T19:05:57.644Z,4.15
2018-07-24T19:08:27.566Z,9.85
2018-07-24T19:10:56.708Z,38.63
2018-07-24T19:13:26.114Z,243.67
2018-07-24T19:15:55.415Z,244.45
2018-07-24T19:18:24.817Z,225.18
2018-07-24T19:20:54.110Z,58.52
2018-07-24T19:23:24.078Z,37.33
2018-07-24T19:25:53.359Z,40.80
2018-07-24T19:28:22.781Z,69.70
2018-07-24T19:30:52.084Z,25.43
2018-07-24T19:33:21.428Z,8.55
2018-07-24T19:35:50.835Z,13.60
2018-07-24T19:38:20.176Z,11.73
2018-07-24T19:40:50.377Z,13.50
2018-07-24T19:43:19.569Z,11.38
2018-07-24T19:45:48.792Z,7.65
2018-07-24T19:48:17.966Z,10.15
2018-07-24T19:50:47.228Z,8.68
2018-07-24T19:53:16.424Z,16.70
2018-07-24T19:55:45.681Z,24.12
2018-07-24T19:58:14.924Z,22.80
2018-07-24T20:00:44.145Z,27.90
2018-07-24T20:03:14.095Z,25.90
2018-07-24T20:05:43.538Z,18.23
2018-07-24T20:08:12.861Z,13.18
2018-07-24T20:10:42.059Z,12.25
2018-07-24T20:13:11.348Z,12.25
2018-07-24T20:15:40.596Z,6.83
2018-07-24T20:18:09.956Z,11.93
2018-07-24T20:20:39.231Z,9.60
2018-07-24T20:23:08.476Z,8.88
2018-07-24T20:25:37.685Z,10.43
2018-07-24T20:28:07.301Z,7.40
2018-07-24T20:30:36.456Z,5.33
2018-07-24T20:33:05.760Z,5.40
2018-07-24T20:35:35.119Z,10.03
2018-07-24T20:38:04.301Z,7.92
2018-07-24T20:40:33.551Z,6.28
2018-07-24T20:43:02.843Z,6.10
2018-07-24T20:45:32.169Z,5.40
2018-07-24T20:48:01.393Z,5.45
2018-07-24T20:50:30.651Z,6.30
2018-07-24T20:52:59.841Z,8.65
2018-07-24T20:55:29.134Z,4.00
2018-07-24T20:57:58.264Z,6.65
2018-07-24T21:00:27.647Z,7.30
2018-07-24T21:02:56.836Z,6.97
2018-07-24T21:05:26.082Z,8.48
2018-07-24T21:07:55.237Z,6.65
2018-07-24T21:10:24.527Z,7.85
2018-07-24T21:12:53.796Z,6.70
2018-07-24T21:15:25.235Z,5.97
2018-07-24T21:17:54.393Z,8.98
2018-07-24T21:20:24.809Z,8.58
2018-07-24T21:22:54.045Z,10.63
2018-07-24T21:25:23.286Z,7.15
2018-07-24T21:27:52.708Z,6.97
2018-07-24T21:30:21.941Z,11.63
2018-07-24T21:32:51.330Z,8.03
2018-07-24T21:35:20.750Z,7.00
2018-07-24T21:37:50.249Z,6.97
2018-07-24T21:40:19.658Z,6.75
2018-07-24T21:42:48.948Z,7.60
2018-07-24T21:45:18.116Z,9.80
2018-07-24T21:47:47.225Z,6.50
2018-07-24T21:50:16.417Z,5.95
2018-07-24T21:52:45.552Z,9.68
2018-07-24T21:55:14.742Z,5.25
2018-07-24T21:57:43.932Z,8.30
2018-07-24T22:00:13.402Z,7.72
2018-07-24T22:02:42.751Z,7.10
2018-07-24T22:05:12.093Z,5.67
2018-07-24T22:07:41.218Z,4.15
2018-07-24T22:10:15.661Z,8.18
2018-07-24T22:12:44.864Z,9.73
2018-07-24T22:15:20.269Z,6.80
2018-07-24T22:17:49.814Z,8.10
2018-07-24T22:20:19.306Z,10.35
2018-07-24T22:22:48.626Z,11.60
2018-07-24T22:25:17.989Z,8.50
2018-07-24T22:27:47.116Z,9.00
2018-07-24T22:30:17.364Z,8.90
2018-07-24T22:32:46.550Z,7.95
2018-07-24T22:35:15.856Z,5.92
2018-07-24T22:37:45.037Z,7.62
2018-07-24T22:40:14.471Z,10.25
2018-07-24T22:42:43.700Z,6.97
2018-07-24T22:45:12.895Z,10.85
2018-07-24T22:47:42.122Z,6.50
2018-07-24T22:50:11.445Z,7.40
2018-07-24T22:52:40.730Z,8.78
2018-07-24T22:55:09.944Z,10.65
2018-07-24T22:57:39.088Z,6.58
2018-07-24T23:00:08.379Z,8.65
2018-07-24T23:02:37.633Z,5.08
2018-07-24T23:05:06.888Z,5.55
2018-07-24T23:07:36.122Z,6.97
2018-07-24T23:10:06.020Z,7.00
2018-07-24T23:12:35.163Z,10.63
2018-07-24T23:15:05.017Z,6.58
2018-07-24T23:17:34.345Z,6.05
2018-07-24T23:20:03.557Z,10.13
2018-07-24T23:22:32.749Z,4.72
2018-07-24T23:25:01.969Z,8.18
2018-07-24T23:27:31.245Z,6.80
2018-07-24T23:30:00.512Z,6.80
2018-07-24T23:32:29.760Z,5.67
2018-07-24T23:34:59.033Z,8.83
2018-07-24T23:37:28.317Z,5.08
2018-07-24T23:39:57.420Z,9.43
2018-07-24T23:42:26.601Z,9.50
2018-07-24T23:44:55.745Z,7.40
2018-07-24T23:47:24.990Z,8.37
2018-07-24T23:49:54.182Z,9.43
2018-07-24T23:52:23.342Z,11.17
2018-07-24T23:54:52.616Z,5.43
2018-07-24T23:57:21.768Z,6.70
2018-07-24T23:59:50.969Z,7.87
